Hayward, WI

8:03 AM CST on December 27, 2014 (GMT -0600)
Sawyer County | Change Station
CLOSE
Current Station
Airport
Location: Hayward,
Elevation: 1214 ft
Nearby Weather Stations
Active Advisory: Winter Weather Advisory Active Notice: Local Storm Report

Elev 1214 ft 46.02 °N, 91.45 °W | Updated 10 minutes ago

Light Snow
Light Snow Mist
25 °F
Feels Like 18 °F
N
6
Wind Variable Wind from Variable

Today
High -- | Low -- °F
--% Chance of Precip.
Yesterday
High -- | Low -- °F
Precip. -- in
7:46 AM 4:26 PM
Waxing Crescent, 37% visible
Pressure 30.02 in
Visibility 0.8 miles
Clouds
Windchill 18 °F
Dew Point 22 °F
Humidity 88%
Rainfall 0.10 in
Snow Depth Not available.
UV Not available.
Pollen .10 out of 12
Air Quality Not available.
Flu Activity Not available.
METAR KHYR 271353Z AUTO VRB05KT 3/4SM -SN BR VV015 M04/M06 A2996 RMK AO2 SLP164 P0002 T10391056

More Conditions Fewer Conditions

Pressure 30.02 in
Visibility 0.8 miles
Clouds
Windchill 18 °F
Dew Point 22 °F
Humidity 88%
Rainfall 0.10 in
Snow Depth Not available.
UV Not available.
Pollen .10 out of 12
Air Quality Not available.
Flu Activity Not available.
METAR KHYR 271353Z AUTO VRB05KT 3/4SM -SN BR VV015 M04/M06 A2996 RMK AO2 SLP164 P0002 T10391056

More Conditions Fewer Conditions

10-Day Weather Forecast

Almanac

Astronomy

Dec. 27, 2014 Rise Set
Actual Time
Civil Twilight
Nautical Twilight
Astronomical Twilight
Moon
Length of Visible Light
Length of Day
Tomorrow will be .
, % of the Moon is Illuminated

Today's Extremes

State Highs State Lows

Community

WunderPhotos

Upload Photos

1,780,905 photos uploaded!

WunderBlogs® & News

Nearby

Air Quality

  Air Quality AQ Index Pollutant
Not available.

Snow Depth

Station Depth Elevation

Earthquake Activity

City Distance Mag. Time & Date
Minimum magnitude displayed is 2.5.

Coastal Water Temperatures

Place Temperature

Nearby Weather Stations